Terminal Aerodrome Forecast
Issued by NWS Wakefield, VA

Home | Current Version | Previous Version | Text Only | Print | Product List | Glossary On
Versions: 1 2 3 4 5 6 7 8 9 10 11 12 13 14 15 16 17 18 19 20 21 22
000
FTUS41 KAKQ 011740
TAFORF
TAF
KORF 011740Z 0118/0218 18008KT 6SM BR VCTS OVC020CB
      TEMPO 0118/0122 P6SM NSW SCT030
     FM020400 20008KT P6SM VCSH OVC020
     FM020900 21008KT 3SM BR OVC008
     FM021400 22008KT P6SM BKN012
     FM021600 23009KT P6SM SCT070=

USA.gov is the U.S. government's official web portal to all federal, state and local government web resources and services.